sensor_id;sensor_type;location;lat;lon;timestamp;temperature;humidity
18998;DHT22;9632;51.018;4.284;2023-02-15T00:00:26;5.30;99.90
18998;DHT22;9632;51.018;4.284;2023-02-15T00:02:51;5.30;99.90
18998;DHT22;9632;51.018;4.284;2023-02-15T00:05:17;5.30;99.90
18998;DHT22;9632;51.018;4.284;2023-02-15T00:07:42;5.30;99.90
18998;DHT22;9632;51.018;4.284;2023-02-15T00:10:09;5.20;99.90
18998;DHT22;9632;51.018;4.284;2023-02-15T00:12:34;5.20;99.90
18998;DHT22;9632;51.018;4.284;2023-02-15T00:15:00;5.20;99.90
18998;DHT22;9632;51.018;4.284;2023-02-15T00:17:29;5.20;99.90
18998;DHT22;9632;51.018;4.284;2023-02-15T00:19:55;5.20;99.90
18998;DHT22;9632;51.018;4.284;2023-02-15T00:22:21;5.20;99.90
18998;DHT22;9632;51.018;4.284;2023-02-15T00:24:47;5.20;99.90
18998;DHT22;9632;51.018;4.284;2023-02-15T00:27:13;5.10;99.90
18998;DHT22;9632;51.018;4.284;2023-02-15T00:29:39;5.10;99.90
18998;DHT22;9632;51.018;4.284;2023-02-15T00:32:04;5.10;99.90
18998;DHT22;9632;51.018;4.284;2023-02-15T00:34:31;5.10;99.90
18998;DHT22;9632;51.018;4.284;2023-02-15T00:36:57;5.10;99.90
18998;DHT22;9632;51.018;4.284;2023-02-15T00:39:22;5.00;99.90
18998;DHT22;9632;51.018;4.284;2023-02-15T00:41:49;5.00;99.90
18998;DHT22;9632;51.018;4.284;2023-02-15T00:44:18;5.00;99.90
18998;DHT22;9632;51.018;4.284;2023-02-15T00:46:59;5.00;99.90
18998;DHT22;9632;51.018;4.284;2023-02-15T00:49:24;5.00;99.90
18998;DHT22;9632;51.018;4.284;2023-02-15T00:51:50;5.00;99.90
18998;DHT22;9632;51.018;4.284;2023-02-15T00:54:15;5.00;99.90
18998;DHT22;9632;51.018;4.284;2023-02-15T00:56:41;5.00;99.90
18998;DHT22;9632;51.018;4.284;2023-02-15T00:59:08;4.90;99.90
18998;DHT22;9632;51.018;4.284;2023-02-15T01:04:56;4.90;99.90
18998;DHT22;9632;51.018;4.284;2023-02-15T01:07:22;4.90;99.90
18998;DHT22;9632;51.018;4.284;2023-02-15T01:10:07;4.80;99.90
18998;DHT22;9632;51.018;4.284;2023-02-15T01:12:33;4.80;99.90
18998;DHT22;9632;51.018;4.284;2023-02-15T01:14:59;4.80;99.90
18998;DHT22;9632;51.018;4.284;2023-02-15T01:17:59;4.80;99.90
18998;DHT22;9632;51.018;4.284;2023-02-15T05:40:11;3.00;99.90
18998;DHT22;9632;51.018;4.284;2023-02-15T05:49:32;3.00;99.90
18998;DHT22;9632;51.018;4.284;2023-02-15T05:55:32;2.90;99.90
18998;DHT22;9632;51.018;4.284;2023-02-15T06:01:22;3.00;99.90
18998;DHT22;9632;51.018;4.284;2023-02-15T06:07:19;3.00;99.90
18998;DHT22;9632;51.018;4.284;2023-02-15T06:13:09;2.90;99.90
18998;DHT22;9632;51.018;4.284;2023-02-15T06:15:54;3.00;99.90
18998;DHT22;9632;51.018;4.284;2023-02-15T06:18:19;2.90;99.90
18998;DHT22;9632;51.018;4.284;2023-02-15T06:20:46;2.90;99.90
18998;DHT22;9632;51.018;4.284;2023-02-15T06:23:12;2.90;99.90
18998;DHT22;9632;51.018;4.284;2023-02-15T06:25:38;2.90;99.90
18998;DHT22;9632;51.018;4.284;2023-02-15T06:28:03;2.90;99.90
18998;DHT22;9632;51.018;4.284;2023-02-15T06:30:29;2.90;99.90
18998;DHT22;9632;51.018;4.284;2023-02-15T06:32:55;3.00;99.90
18998;DHT22;9632;51.018;4.284;2023-02-15T06:35:20;2.90;99.90
18998;DHT22;9632;51.018;4.284;2023-02-15T06:37:47;2.90;99.90
18998;DHT22;9632;51.018;4.284;2023-02-15T06:40:13;2.90;99.90
18998;DHT22;9632;51.018;4.284;2023-02-15T06:42:39;2.90;99.90
18998;DHT22;9632;51.018;4.284;2023-02-15T06:45:05;2.90;99.90
18998;DHT22;9632;51.018;4.284;2023-02-15T06:47:30;2.90;99.90
18998;DHT22;9632;51.018;4.284;2023-02-15T06:49:56;2.90;99.90
18998;DHT22;9632;51.018;4.284;2023-02-15T06:52:23;3.00;99.90
18998;DHT22;9632;51.018;4.284;2023-02-15T06:55:10;2.90;99.90
18998;DHT22;9632;51.018;4.284;2023-02-15T07:01:04;2.90;99.90
18998;DHT22;9632;51.018;4.284;2023-02-15T07:07:03;2.80;99.90
18998;DHT22;9632;51.018;4.284;2023-02-15T07:13:06;2.90;99.90
18998;DHT22;9632;51.018;4.284;2023-02-15T07:18:54;2.90;99.90
18998;DHT22;9632;51.018;4.284;2023-02-15T07:45:29;3.10;99.90
18998;DHT22;9632;51.018;4.284;2023-02-15T07:47:55;3.20;99.90
18998;DHT22;9632;51.018;4.284;2023-02-15T07:50:22;3.30;99.90
18998;DHT22;9632;51.018;4.284;2023-02-15T07:52:48;3.30;99.90
18998;DHT22;9632;51.018;4.284;2023-02-15T07:55:13;3.30;99.90
18998;DHT22;9632;51.018;4.284;2023-02-15T07:57:43;3.40;99.90
18998;DHT22;9632;51.018;4.284;2023-02-15T08:00:13;3.50;99.90
18998;DHT22;9632;51.018;4.284;2023-02-15T08:02:40;3.50;99.90
18998;DHT22;9632;51.018;4.284;2023-02-15T08:08:28;3.70;99.90
18998;DHT22;9632;51.018;4.284;2023-02-15T08:14:17;3.90;99.90
18998;DHT22;9632;51.018;4.284;2023-02-15T08:16:49;4.10;99.90
18998;DHT22;9632;51.018;4.284;2023-02-15T08:19:20;4.20;99.90
18998;DHT22;9632;51.018;4.284;2023-02-15T08:22:05;4.30;99.90
18998;DHT22;9632;51.018;4.284;2023-02-15T08:24:36;4.50;99.90
18998;DHT22;9632;51.018;4.284;2023-02-15T08:27:03;4.50;99.90
18998;DHT22;9632;51.018;4.284;2023-02-15T08:29:30;4.70;99.90
18998;DHT22;9632;51.018;4.284;2023-02-15T08:32:07;4.70;99.90
18998;DHT22;9632;51.018;4.284;2023-02-15T08:34:37;4.80;99.90
18998;DHT22;9632;51.018;4.284;2023-02-15T08:37:03;4.90;99.90
18998;DHT22;9632;51.018;4.284;2023-02-15T08:39:29;5.00;99.90
18998;DHT22;9632;51.018;4.284;2023-02-15T08:41:55;5.00;99.90
18998;DHT22;9632;51.018;4.284;2023-02-15T08:44:23;5.10;99.90
18998;DHT22;9632;51.018;4.284;2023-02-15T08:46:49;5.20;99.90
18998;DHT22;9632;51.018;4.284;2023-02-15T08:49:18;5.30;99.90
18998;DHT22;9632;51.018;4.284;2023-02-15T08:51:44;5.40;99.90
18998;DHT22;9632;51.018;4.284;2023-02-15T08:54:14;5.50;99.90
18998;DHT22;9632;51.018;4.284;2023-02-15T08:56:41;5.70;99.90
18998;DHT22;9632;51.018;4.284;2023-02-15T08:59:18;5.70;99.90
18998;DHT22;9632;51.018;4.284;2023-02-15T09:01:45;5.90;99.90
18998;DHT22;9632;51.018;4.284;2023-02-15T09:04:11;6.00;99.90
18998;DHT22;9632;51.018;4.284;2023-02-15T09:06:39;6.10;99.90
18998;DHT22;9632;51.018;4.284;2023-02-15T09:09:06;6.20;99.90
18998;DHT22;9632;51.018;4.284;2023-02-15T09:11:41;6.30;99.90
18998;DHT22;9632;51.018;4.284;2023-02-15T09:14:15;6.40;99.90
18998;DHT22;9632;51.018;4.284;2023-02-15T09:16:43;6.50;99.90
18998;DHT22;9632;51.018;4.284;2023-02-15T09:19:15;6.60;99.90
18998;DHT22;9632;51.018;4.284;2023-02-15T09:21:41;6.90;99.90
18998;DHT22;9632;51.018;4.284;2023-02-15T09:24:09;7.00;99.90
18998;DHT22;9632;51.018;4.284;2023-02-15T09:26:39;7.20;99.90
18998;DHT22;9632;51.018;4.284;2023-02-15T09:29:09;7.40;99.90
18998;DHT22;9632;51.018;4.284;2023-02-15T09:31:47;7.50;99.90
18998;DHT22;9632;51.018;4.284;2023-02-15T09:34:15;7.60;99.90
18998;DHT22;9632;51.018;4.284;2023-02-15T09:36:42;7.80;99.90
18998;DHT22;9632;51.018;4.284;2023-02-15T09:39:22;8.00;99.90
18998;DHT22;9632;51.018;4.284;2023-02-15T09:44:57;8.20;99.90
18998;DHT22;9632;51.018;4.284;2023-02-15T09:50:31;8.60;99.90
18998;DHT22;9632;51.018;4.284;2023-02-15T09:56:10;8.80;99.90
18998;DHT22;9632;51.018;4.284;2023-02-15T10:01:34;9.10;99.90
18998;DHT22;9632;51.018;4.284;2023-02-15T10:07:55;9.40;99.90
18998;DHT22;9632;51.018;4.284;2023-02-15T10:10:54;9.60;99.90
18998;DHT22;9632;51.018;4.284;2023-02-15T10:13:37;9.80;99.90
18998;DHT22;9632;51.018;4.284;2023-02-15T10:16:19;9.90;99.90
18998;DHT22;9632;51.018;4.284;2023-02-15T10:19:12;10.00;99.90
18998;DHT22;9632;51.018;4.284;2023-02-15T10:24:49;10.30;99.90
18998;DHT22;9632;51.018;4.284;2023-02-15T10:27:21;10.40;99.90
18998;DHT22;9632;51.018;4.284;2023-02-15T10:30:10;10.50;99.90
18998;DHT22;9632;51.018;4.284;2023-02-15T10:32:53;10.50;99.90
18998;DHT22;9632;51.018;4.284;2023-02-15T10:35:30;10.60;99.90
18998;DHT22;9632;51.018;4.284;2023-02-15T10:40:59;10.70;99.90
18998;DHT22;9632;51.018;4.284;2023-02-15T10:43:51;10.80;99.90
18998;DHT22;9632;51.018;4.284;2023-02-15T10:49:54;10.90;99.90
18998;DHT22;9632;51.018;4.284;2023-02-15T10:52:46;11.00;99.90
18998;DHT22;9632;51.018;4.284;2023-02-15T11:06:11;11.50;99.90
18998;DHT22;9632;51.018;4.284;2023-02-15T11:08:45;11.50;99.90
18998;DHT22;9632;51.018;4.284;2023-02-15T11:11:23;11.50;99.90
18998;DHT22;9632;51.018;4.284;2023-02-15T11:13:56;11.60;99.90
18998;DHT22;9632;51.018;4.284;2023-02-15T11:16:31;11.60;99.90
18998;DHT22;9632;51.018;4.284;2023-02-15T11:21:49;11.60;99.90
18998;DHT22;9632;51.018;4.284;2023-02-15T11:41:09;11.80;99.90
18998;DHT22;9632;51.018;4.284;2023-02-15T11:46:29;11.80;99.90
18998;DHT22;9632;51.018;4.284;2023-02-15T11:48:55;11.70;99.90
18998;DHT22;9632;51.018;4.284;2023-02-15T11:51:22;11.70;99.90
18998;DHT22;9632;51.018;4.284;2023-02-15T11:53:49;11.70;99.90
18998;DHT22;9632;51.018;4.284;2023-02-15T11:56:20;11.70;99.90
18998;DHT22;9632;51.018;4.284;2023-02-15T11:59:08;11.90;99.90
18998;DHT22;9632;51.018;4.284;2023-02-15T12:01:41;11.90;99.90
18998;DHT22;9632;51.018;4.284;2023-02-15T12:04:16;11.90;99.90
18998;DHT22;9632;51.018;4.284;2023-02-15T12:06:49;12.00;99.90
18998;DHT22;9632;51.018;4.284;2023-02-15T12:12:29;12.10;99.90
18998;DHT22;9632;51.018;4.284;2023-02-15T12:14:57;12.30;99.90
18998;DHT22;9632;51.018;4.284;2023-02-15T12:17:29;12.30;99.90
18998;DHT22;9632;51.018;4.284;2023-02-15T12:20:32;12.40;99.90
18998;DHT22;9632;51.018;4.284;2023-02-15T12:23:28;12.40;99.90
18998;DHT22;9632;51.018;4.284;2023-02-15T12:26:01;12.50;99.90
18998;DHT22;9632;51.018;4.284;2023-02-15T12:28:41;12.50;99.90
18998;DHT22;9632;51.018;4.284;2023-02-15T12:31:31;12.50;99.90
18998;DHT22;9632;51.018;4.284;2023-02-15T12:34:02;12.60;99.90
18998;DHT22;9632;51.018;4.284;2023-02-15T12:36:49;12.60;99.90
18998;DHT22;9632;51.018;4.284;2023-02-15T12:39:37;12.70;99.90
18998;DHT22;9632;51.018;4.284;2023-02-15T12:42:18;12.70;99.90
18998;DHT22;9632;51.018;4.284;2023-02-15T12:45:02;12.80;99.90
18998;DHT22;9632;51.018;4.284;2023-02-15T12:47:30;12.80;99.90
18998;DHT22;9632;51.018;4.284;2023-02-15T12:50:22;12.90;99.90
18998;DHT22;9632;51.018;4.284;2023-02-15T12:52:50;12.90;99.90
18998;DHT22;9632;51.018;4.284;2023-02-15T12:55:26;12.90;99.90
18998;DHT22;9632;51.018;4.284;2023-02-15T12:58:15;13.00;99.90
18998;DHT22;9632;51.018;4.284;2023-02-15T13:07:34;13.20;99.90
18998;DHT22;9632;51.018;4.284;2023-02-15T13:10:00;13.20;99.90
18998;DHT22;9632;51.018;4.284;2023-02-15T13:12:28;13.30;99.90
18998;DHT22;9632;51.018;4.284;2023-02-15T13:14:59;13.20;99.90
18998;DHT22;9632;51.018;4.284;2023-02-15T13:17:32;13.20;99.90
18998;DHT22;9632;51.018;4.284;2023-02-15T13:20:23;13.10;99.90
18998;DHT22;9632;51.018;4.284;2023-02-15T13:40:15;13.30;99.90
18998;DHT22;9632;51.018;4.284;2023-02-15T15:55:32;13.40;99.90
18998;DHT22;9632;51.018;4.284;2023-02-15T16:08:36;13.20;99.90
18998;DHT22;9632;51.018;4.284;2023-02-15T16:48:23;12.50;99.90
18998;DHT22;9632;51.018;4.284;2023-02-15T16:51:10;12.40;99.90
18998;DHT22;9632;51.018;4.284;2023-02-15T16:54:19;12.40;99.90
18998;DHT22;9632;51.018;4.284;2023-02-15T16:56:46;12.40;99.90
18998;DHT22;9632;51.018;4.284;2023-02-15T17:02:25;12.30;99.90
18998;DHT22;9632;51.018;4.284;2023-02-15T17:07:49;12.20;99.90
18998;DHT22;9632;51.018;4.284;2023-02-15T17:10:36;12.20;99.90
18998;DHT22;9632;51.018;4.284;2023-02-15T17:13:17;12.10;99.90
18998;DHT22;9632;51.018;4.284;2023-02-15T17:20:57;11.90;99.90
18998;DHT22;9632;51.018;4.284;2023-02-15T17:27:26;11.80;99.90
18998;DHT22;9632;51.018;4.284;2023-02-15T17:29:52;11.70;99.90
18998;DHT22;9632;51.018;4.284;2023-02-15T17:32:25;11.70;99.90
18998;DHT22;9632;51.018;4.284;2023-02-15T17:38:20;11.60;99.90
18998;DHT22;9632;51.018;4.284;2023-02-15T17:41:16;11.60;99.90
18998;DHT22;9632;51.018;4.284;2023-02-15T17:43:42;11.50;99.90
18998;DHT22;9632;51.018;4.284;2023-02-15T17:46:09;11.50;99.90
18998;DHT22;9632;51.018;4.284;2023-02-15T17:48:40;11.50;99.90
18998;DHT22;9632;51.018;4.284;2023-02-15T17:57:54;11.40;99.90
18998;DHT22;9632;51.018;4.284;2023-02-15T18:00:20;11.40;99.90
18998;DHT22;9632;51.018;4.284;2023-02-15T18:03:04;11.40;99.90
18998;DHT22;9632;51.018;4.284;2023-02-15T18:05:50;11.40;99.90
18998;DHT22;9632;51.018;4.284;2023-02-15T18:08:34;11.40;99.90
18998;DHT22;9632;51.018;4.284;2023-02-15T18:11:18;11.30;99.90
18998;DHT22;9632;51.018;4.284;2023-02-15T18:14:09;11.30;99.90
18998;DHT22;9632;51.018;4.284;2023-02-15T18:16:37;11.20;99.90
18998;DHT22;9632;51.018;4.284;2023-02-15T18:19:06;11.20;99.90
18998;DHT22;9632;51.018;4.284;2023-02-15T18:21:34;11.20;99.90
18998;DHT22;9632;51.018;4.284;2023-02-15T18:24:00;11.20;99.90
18998;DHT22;9632;51.018;4.284;2023-02-15T18:26:26;11.10;99.90
18998;DHT22;9632;51.018;4.284;2023-02-15T18:28:53;11.10;99.90
18998;DHT22;9632;51.018;4.284;2023-02-15T18:31:20;11.20;99.90
18998;DHT22;9632;51.018;4.284;2023-02-15T18:33:48;11.20;99.90
18998;DHT22;9632;51.018;4.284;2023-02-15T18:36:30;11.20;99.90
18998;DHT22;9632;51.018;4.284;2023-02-15T18:38:58;11.10;99.90
18998;DHT22;9632;51.018;4.284;2023-02-15T18:41:24;11.10;99.90
18998;DHT22;9632;51.018;4.284;2023-02-15T18:43:51;11.00;99.90
18998;DHT22;9632;51.018;4.284;2023-02-15T18:46:18;11.10;99.90
18998;DHT22;9632;51.018;4.284;2023-02-15T18:48:44;11.00;99.90
18998;DHT22;9632;51.018;4.284;2023-02-15T18:51:30;11.00;99.90
18998;DHT22;9632;51.018;4.284;2023-02-15T18:53:56;10.90;99.90
18998;DHT22;9632;51.018;4.284;2023-02-15T18:56:22;10.90;99.90
18998;DHT22;9632;51.018;4.284;2023-02-15T18:58:48;10.90;99.90
18998;DHT22;9632;51.018;4.284;2023-02-15T19:01:16;10.90;99.90
18998;DHT22;9632;51.018;4.284;2023-02-15T19:03:46;10.90;99.90
18998;DHT22;9632;51.018;4.284;2023-02-15T19:06:13;10.90;99.90
18998;DHT22;9632;51.018;4.284;2023-02-15T19:08:41;10.80;99.90
18998;DHT22;9632;51.018;4.284;2023-02-15T19:11:22;10.80;99.90
18998;DHT22;9632;51.018;4.284;2023-02-15T19:13:50;10.80;99.90
18998;DHT22;9632;51.018;4.284;2023-02-15T19:18:48;10.80;99.90
18998;DHT22;9632;51.018;4.284;2023-02-15T19:21:16;10.70;99.90
18998;DHT22;9632;51.018;4.284;2023-02-15T19:23:45;10.60;99.90
18998;DHT22;9632;51.018;4.284;2023-02-15T19:26:13;10.60;99.90
18998;DHT22;9632;51.018;4.284;2023-02-15T19:28:39;10.60;99.90
18998;DHT22;9632;51.018;4.284;2023-02-15T19:31:04;10.50;99.90
18998;DHT22;9632;51.018;4.284;2023-02-15T19:33:30;10.50;99.90
18998;DHT22;9632;51.018;4.284;2023-02-15T19:35:56;10.50;99.90
18998;DHT22;9632;51.018;4.284;2023-02-15T19:38:25;10.50;99.90
18998;DHT22;9632;51.018;4.284;2023-02-15T19:40:58;10.50;99.90
18998;DHT22;9632;51.018;4.284;2023-02-15T19:43:25;10.50;99.90
18998;DHT22;9632;51.018;4.284;2023-02-15T19:45:52;10.30;99.90
18998;DHT22;9632;51.018;4.284;2023-02-15T19:48:18;10.40;99.90
18998;DHT22;9632;51.018;4.284;2023-02-15T19:50:47;10.40;99.90
18998;DHT22;9632;51.018;4.284;2023-02-15T19:55:45;10.30;99.90
18998;DHT22;9632;51.018;4.284;2023-02-15T19:58:11;10.30;99.90
18998;DHT22;9632;51.018;4.284;2023-02-15T20:00:40;10.30;99.90
18998;DHT22;9632;51.018;4.284;2023-02-15T20:03:05;10.20;99.90
18998;DHT22;9632;51.018;4.284;2023-02-15T20:05:34;10.10;99.90
18998;DHT22;9632;51.018;4.284;2023-02-15T20:08:03;10.10;99.90
18998;DHT22;9632;51.018;4.284;2023-02-15T20:10:33;10.00;99.90
18998;DHT22;9632;51.018;4.284;2023-02-15T20:12:59;10.00;99.90
18998;DHT22;9632;51.018;4.284;2023-02-15T20:17:55;10.00;99.90
18998;DHT22;9632;51.018;4.284;2023-02-15T20:20:23;9.90;99.90
18998;DHT22;9632;51.018;4.284;2023-02-15T20:22:51;9.90;99.90
18998;DHT22;9632;51.018;4.284;2023-02-15T20:25:34;9.80;99.90
18998;DHT22;9632;51.018;4.284;2023-02-15T20:28:00;9.80;99.90
18998;DHT22;9632;51.018;4.284;2023-02-15T20:30:31;9.80;99.90
18998;DHT22;9632;51.018;4.284;2023-02-15T20:32:57;9.70;99.90
18998;DHT22;9632;51.018;4.284;2023-02-15T20:35:25;9.80;99.90
18998;DHT22;9632;51.018;4.284;2023-02-15T20:37:55;9.70;99.90
18998;DHT22;9632;51.018;4.284;2023-02-15T20:40:32;9.70;99.90
18998;DHT22;9632;51.018;4.284;2023-02-15T20:42:59;9.70;99.90
18998;DHT22;9632;51.018;4.284;2023-02-15T20:45:30;9.70;99.90
18998;DHT22;9632;51.018;4.284;2023-02-15T20:47:57;9.60;99.90
18998;DHT22;9632;51.018;4.284;2023-02-15T20:50:24;9.70;99.90
18998;DHT22;9632;51.018;4.284;2023-02-15T20:52:52;9.70;99.90
18998;DHT22;9632;51.018;4.284;2023-02-15T20:55:21;9.60;99.90
18998;DHT22;9632;51.018;4.284;2023-02-15T20:57:47;9.60;99.90
18998;DHT22;9632;51.018;4.284;2023-02-15T21:00:18;9.60;99.90
18998;DHT22;9632;51.018;4.284;2023-02-15T21:02:53;9.60;99.90
18998;DHT22;9632;51.018;4.284;2023-02-15T21:05:28;9.50;99.90
18998;DHT22;9632;51.018;4.284;2023-02-15T21:07:55;9.60;99.90
18998;DHT22;9632;51.018;4.284;2023-02-15T21:10:26;9.60;99.90
18998;DHT22;9632;51.018;4.284;2023-02-15T21:12:54;9.50;99.90
18998;DHT22;9632;51.018;4.284;2023-02-15T21:15:38;9.40;99.90
18998;DHT22;9632;51.018;4.284;2023-02-15T21:18:09;9.40;99.90
18998;DHT22;9632;51.018;4.284;2023-02-15T21:20:42;9.40;99.90
18998;DHT22;9632;51.018;4.284;2023-02-15T21:23:10;9.30;99.90
18998;DHT22;9632;51.018;4.284;2023-02-15T21:25:38;9.40;99.90
18998;DHT22;9632;51.018;4.284;2023-02-15T21:28:05;9.30;99.90
18998;DHT22;9632;51.018;4.284;2023-02-15T21:30:34;9.30;99.90
18998;DHT22;9632;51.018;4.284;2023-02-15T21:32:59;9.30;99.90
18998;DHT22;9632;51.018;4.284;2023-02-15T21:35:25;9.30;99.90
18998;DHT22;9632;51.018;4.284;2023-02-15T21:37:51;9.40;99.90
18998;DHT22;9632;51.018;4.284;2023-02-15T21:40:24;9.30;99.90
18998;DHT22;9632;51.018;4.284;2023-02-15T21:42:50;9.30;99.90
18998;DHT22;9632;51.018;4.284;2023-02-15T21:45:35;9.30;99.90
18998;DHT22;9632;51.018;4.284;2023-02-15T21:48:19;9.20;99.90
18998;DHT22;9632;51.018;4.284;2023-02-15T21:50:49;9.30;99.90
18998;DHT22;9632;51.018;4.284;2023-02-15T21:53:44;9.20;99.90
18998;DHT22;9632;51.018;4.284;2023-02-15T21:56:15;9.20;99.90
18998;DHT22;9632;51.018;4.284;2023-02-15T21:58:41;9.10;99.90
18998;DHT22;9632;51.018;4.284;2023-02-15T22:01:34;9.10;99.90
18998;DHT22;9632;51.018;4.284;2023-02-15T22:04:00;9.10;99.90
18998;DHT22;9632;51.018;4.284;2023-02-15T22:06:26;9.10;99.90
18998;DHT22;9632;51.018;4.284;2023-02-15T22:08:51;9.10;99.90
18998;DHT22;9632;51.018;4.284;2023-02-15T22:11:19;9.10;99.90
18998;DHT22;9632;51.018;4.284;2023-02-15T22:13:48;9.10;99.90
18998;DHT22;9632;51.018;4.284;2023-02-15T22:16:17;9.10;99.90
18998;DHT22;9632;51.018;4.284;2023-02-15T22:18:44;9.10;99.90
18998;DHT22;9632;51.018;4.284;2023-02-15T22:21:10;9.00;99.90
18998;DHT22;9632;51.018;4.284;2023-02-15T22:23:36;9.00;99.90
18998;DHT22;9632;51.018;4.284;2023-02-15T22:26:05;9.00;99.90
18998;DHT22;9632;51.018;4.284;2023-02-15T22:28:36;9.00;99.90
18998;DHT22;9632;51.018;4.284;2023-02-15T22:31:03;9.00;99.90
18998;DHT22;9632;51.018;4.284;2023-02-15T22:33:32;9.00;99.90
18998;DHT22;9632;51.018;4.284;2023-02-15T22:35:58;8.90;99.90
18998;DHT22;9632;51.018;4.284;2023-02-15T22:38:24;8.90;99.90
18998;DHT22;9632;51.018;4.284;2023-02-15T22:40:52;8.90;99.90
18998;DHT22;9632;51.018;4.284;2023-02-15T22:43:24;8.80;99.90
18998;DHT22;9632;51.018;4.284;2023-02-15T22:45:54;8.80;99.90
18998;DHT22;9632;51.018;4.284;2023-02-15T22:48:22;8.80;99.90
18998;DHT22;9632;51.018;4.284;2023-02-15T22:50:47;8.80;99.90
18998;DHT22;9632;51.018;4.284;2023-02-15T22:53:13;8.80;99.90
18998;DHT22;9632;51.018;4.284;2023-02-15T22:55:39;8.90;99.90
18998;DHT22;9632;51.018;4.284;2023-02-15T22:58:05;8.80;99.90
18998;DHT22;9632;51.018;4.284;2023-02-15T23:00:36;8.80;99.90
18998;DHT22;9632;51.018;4.284;2023-02-15T23:03:13;8.80;99.90
18998;DHT22;9632;51.018;4.284;2023-02-15T23:05:39;8.80;99.90
18998;DHT22;9632;51.018;4.284;2023-02-15T23:08:04;8.80;99.90
18998;DHT22;9632;51.018;4.284;2023-02-15T23:10:30;8.80;99.90
18998;DHT22;9632;51.018;4.284;2023-02-15T23:12:57;8.70;99.90
18998;DHT22;9632;51.018;4.284;2023-02-15T23:15:44;8.70;99.90
18998;DHT22;9632;51.018;4.284;2023-02-15T23:18:22;8.70;99.90
18998;DHT22;9632;51.018;4.284;2023-02-15T23:23:43;8.70;99.90
18998;DHT22;9632;51.018;4.284;2023-02-15T23:26:19;8.70;99.90
18998;DHT22;9632;51.018;4.284;2023-02-15T23:28:47;8.60;99.90
18998;DHT22;9632;51.018;4.284;2023-02-15T23:31:21;8.60;99.90
18998;DHT22;9632;51.018;4.284;2023-02-15T23:33:48;8.60;99.90
18998;DHT22;9632;51.018;4.284;2023-02-15T23:36:32;8.60;99.90
18998;DHT22;9632;51.018;4.284;2023-02-15T23:39:03;8.50;99.90
18998;DHT22;9632;51.018;4.284;2023-02-15T23:41:53;8.50;99.90
18998;DHT22;9632;51.018;4.284;2023-02-15T23:44:18;8.50;99.90
18998;DHT22;9632;51.018;4.284;2023-02-15T23:46:45;8.50;99.90
18998;DHT22;9632;51.018;4.284;2023-02-15T23:49:12;8.40;99.90
18998;DHT22;9632;51.018;4.284;2023-02-15T23:51:40;8.40;99.90
18998;DHT22;9632;51.018;4.284;2023-02-15T23:54:06;8.40;99.90
18998;DHT22;9632;51.018;4.284;2023-02-15T23:56:32;8.40;99.90
18998;DHT22;9632;51.018;4.284;2023-02-15T23:58:58;8.40;99.90
